Time;durP1;ratioP1;P1;durP2;ratioP2;P2;SDS_P1;SDS_P2;PMS_P1;PMS_P2;Temp;Humidity;BMP_temperature;BMP_pressure;BME280_temperature;BME280_humidity;BME280_pressure;Samples;Min_cycle;Max_cycle;Signal;HPM_P1;HPM_P2
2022/11/17 00:00:15;;;;;;;;;;;5.90;99.90;;;;;;5070181;28;19921;-91
2022/11/17 00:02:42;;;;;;;;;;;6.00;99.90;;;;;;5055731;28;19921;-91
2022/11/17 00:05:09;;;;;;;;;;;6.10;99.90;;;;;;5055413;28;19944;-90
2022/11/17 00:07:36;;;;;;;;;;;6.00;99.90;;;;;;5055664;28;19940;-91
2022/11/17 00:10:03;;;;;;;;;;;6.00;99.90;;;;;;5056413;28;19956;-91
2022/11/17 00:15:15;;;;;;;;;;;6.00;99.90;;;;;;5063991;28;19927;-90
2022/11/17 00:17:42;;;;;;;;;;;6.00;99.90;;;;;;5076403;28;19921;-90
2022/11/17 00:22:54;;;;;;;;;;;6.00;99.90;;;;;;5076816;28;19958;-89
2022/11/17 00:25:21;;;;;;;;;;;6.00;99.90;;;;;;5075008;28;19943;-90
2022/11/17 00:27:49;;;;;;;;;;;6.00;99.90;;;;;;5073928;28;19908;-90
2022/11/17 00:35:44;;;;;;;;;;;6.00;99.90;;;;;;5057194;28;19929;-90
2022/11/17 00:38:17;;;;;;;;;;;6.00;99.90;;;;;;5051514;28;19944;-91
2022/11/17 00:40:44;;;;;;;;;;;6.00;99.90;;;;;;5053182;28;19935;-90
2022/11/17 00:43:12;;;;;;;;;;;6.00;99.90;;;;;;5052719;28;19960;-91
2022/11/17 00:45:40;;;;;;;;;;;6.00;99.90;;;;;;5052858;28;19951;-90
2022/11/17 00:48:07;;;;;;;;;;;6.00;99.90;;;;;;5052240;28;19976;-91
2022/11/17 00:50:34;;;;;;;;;;;6.00;99.90;;;;;;5052436;28;19944;-90
2022/11/17 00:53:00;;;;;;;;;;;6.00;99.90;;;;;;5052534;28;19948;-90
2022/11/17 00:55:27;;;;;;;;;;;6.00;99.90;;;;;;5052257;28;19923;-91
2022/11/17 00:57:54;;;;;;;;;;;6.00;99.90;;;;;;5051523;28;19968;-90
2022/11/17 01:00:22;;;;;;;;;;;6.00;99.90;;;;;;5057404;28;19948;-91
2022/11/17 01:02:49;;;;;;;;;;;6.00;99.90;;;;;;5072115;28;19920;-90
2022/11/17 01:05:16;;;;;;;;;;;6.00;99.90;;;;;;5072263;28;19920;-91
2022/11/17 01:07:42;;;;;;;;;;;6.00;99.90;;;;;;5073449;28;20204;-91
2022/11/17 01:10:09;;;;;;;;;;;6.00;99.90;;;;;;5072855;28;20174;-91
2022/11/17 01:12:36;;;;;;;;;;;6.10;99.90;;;;;;5071894;28;20227;-91
2022/11/17 01:15:03;;;;;;;;;;;6.10;99.90;;;;;;5071211;28;19976;-91
2022/11/17 01:17:31;;;;;;;;;;;6.10;99.90;;;;;;5071187;28;19921;-91
2022/11/17 01:19:58;;;;;;;;;;;6.00;99.90;;;;;;5071229;28;20183;-91
2022/11/17 01:22:24;;;;;;;;;;;6.00;99.90;;;;;;5071111;28;19921;-91
2022/11/17 01:24:51;;;;;;;;;;;6.00;99.90;;;;;;5070629;28;19921;-91
2022/11/17 01:27:18;;;;;;;;;;;6.00;99.90;;;;;;5070124;28;19920;-90
2022/11/17 01:29:44;;;;;;;;;;;6.00;99.90;;;;;;5070465;28;19920;-91
2022/11/17 01:32:11;;;;;;;;;;;6.00;99.90;;;;;;5072244;28;19921;-90
2022/11/17 01:34:39;;;;;;;;;;;6.00;99.90;;;;;;5070662;28;19954;-91
2022/11/17 01:37:21;;;;;;;;;;;6.00;99.90;;;;;;5071136;28;19997;-92
2022/11/17 01:39:47;;;;;;;;;;;6.00;99.90;;;;;;5071584;28;20234;-90
2022/11/17 01:42:16;;;;;;;;;;;6.00;99.90;;;;;;5072558;28;19921;-90
2022/11/17 01:44:57;;;;;;;;;;;6.00;99.90;;;;;;5071051;28;19932;-91
2022/11/17 01:47:28;;;;;;;;;;;6.10;99.90;;;;;;5071428;28;19947;-91
2022/11/17 01:49:59;;;;;;;;;;;6.00;99.90;;;;;;5071950;28;19955;-91
2022/11/17 01:52:27;;;;;;;;;;;6.10;99.90;;;;;;5071836;28;19944;-91
2022/11/17 01:54:55;;;;;;;;;;;6.20;99.90;;;;;;5071026;28;19951;-91
2022/11/17 01:57:23;;;;;;;;;;;6.20;99.90;;;;;;5070985;28;19992;-90
2022/11/17 01:59:52;;;;;;;;;;;6.20;99.90;;;;;;5071476;28;19947;-91
2022/11/17 02:02:19;;;;;;;;;;;6.20;99.90;;;;;;5048905;28;19921;-90
2022/11/17 02:04:49;;;;;;;;;;;6.30;99.90;;;;;;5050321;28;19921;-90
2022/11/17 02:07:19;;;;;;;;;;;6.30;99.90;;;;;;5054515;28;19933;-89
2022/11/17 02:09:46;;;;;;;;;;;6.40;99.90;;;;;;5057026;28;19916;-90
2022/11/17 02:12:14;;;;;;;;;;;6.40;99.90;;;;;;5050559;28;19989;-89
2022/11/17 02:14:41;;;;;;;;;;;6.40;99.90;;;;;;5050306;28;19939;-89
2022/11/17 02:17:08;;;;;;;;;;;6.40;99.90;;;;;;5047783;28;19952;-89
2022/11/17 02:19:37;;;;;;;;;;;6.40;99.90;;;;;;5049818;28;20112;-90
2022/11/17 02:22:19;;;;;;;;;;;6.40;99.90;;;;;;5049562;28;19928;-90
2022/11/17 02:24:59;;;;;;;;;;;6.50;99.90;;;;;;5051201;28;19945;-90
2022/11/17 02:27:53;;;;;;;;;;;6.50;99.90;;;;;;5051444;28;19945;-90
2022/11/17 02:30:22;;;;;;;;;;;6.50;99.90;;;;;;5049654;28;19929;-90
2022/11/17 02:32:56;;;;;;;;;;;6.50;99.90;;;;;;5048575;28;19944;-90
2022/11/17 02:35:26;;;;;;;;;;;6.50;99.90;;;;;;5048931;28;20258;-90
2022/11/17 02:37:59;;;;;;;;;;;6.50;99.90;;;;;;5049284;28;19921;-90
2022/11/17 02:40:29;;;;;;;;;;;6.50;99.90;;;;;;5049476;28;19921;-90
2022/11/17 02:45:41;;;;;;;;;;;6.50;99.90;;;;;;5025418;28;19963;-90
2022/11/17 02:48:12;;;;;;;;;;;6.50;99.90;;;;;;5053760;28;19921;-91
2022/11/17 02:50:40;;;;;;;;;;;6.50;99.90;;;;;;5047673;28;19928;-91
2022/11/17 02:53:16;;;;;;;;;;;6.50;99.90;;;;;;5054125;28;19947;-90
2022/11/17 02:55:48;;;;;;;;;;;6.50;99.90;;;;;;5067188;28;19951;-90
2022/11/17 02:58:14;;;;;;;;;;;6.50;99.90;;;;;;5067621;28;19956;-90
2022/11/17 03:00:48;;;;;;;;;;;6.50;99.90;;;;;;5066449;28;19921;-90
2022/11/17 03:03:29;;;;;;;;;;;6.50;99.90;;;;;;5067448;28;19955;-90
2022/11/17 03:05:58;;;;;;;;;;;6.50;99.90;;;;;;5068838;28;19921;-90
2022/11/17 03:08:30;;;;;;;;;;;6.50;99.90;;;;;;5067845;28;19928;-90
2022/11/17 03:10:58;;;;;;;;;;;6.50;99.90;;;;;;5067435;28;19940;-90
2022/11/17 03:13:27;;;;;;;;;;;6.50;99.90;;;;;;5067096;28;19920;-90
2022/11/17 03:15:56;;;;;;;;;;;6.50;99.90;;;;;;5066239;28;20235;-90
2022/11/17 03:18:29;;;;;;;;;;;6.50;99.90;;;;;;5058749;28;20338;-90
2022/11/17 03:20:59;;;;;;;;;;;6.60;99.90;;;;;;5047207;28;19944;-90
2022/11/17 03:23:29;;;;;;;;;;;6.60;99.90;;;;;;5049738;28;20273;-89
2022/11/17 03:25:58;;;;;;;;;;;6.50;99.90;;;;;;5050075;28;19921;-91
2022/11/17 03:28:27;;;;;;;;;;;6.60;99.90;;;;;;5049769;28;20128;-90
2022/11/17 03:30:55;;;;;;;;;;;6.60;99.90;;;;;;5049676;28;19945;-91
2022/11/17 03:33:23;;;;;;;;;;;6.60;99.90;;;;;;5051872;28;19928;-91
2022/11/17 03:35:53;;;;;;;;;;;6.60;99.90;;;;;;5057951;28;19921;-91
2022/11/17 03:38:21;;;;;;;;;;;6.60;99.90;;;;;;5058688;28;19921;-92
2022/11/17 03:40:50;;;;;;;;;;;6.60;99.90;;;;;;5057958;28;19932;-91
2022/11/17 03:43:18;;;;;;;;;;;6.60;99.90;;;;;;5057768;28;19920;-91
2022/11/17 03:45:47;;;;;;;;;;;6.60;99.90;;;;;;5057173;28;20227;-90
2022/11/17 03:48:16;;;;;;;;;;;6.60;99.90;;;;;;5057401;28;19956;-90
2022/11/17 03:50:45;;;;;;;;;;;6.60;99.90;;;;;;5058137;28;19921;-91
2022/11/17 03:53:13;;;;;;;;;;;6.60;99.90;;;;;;5059708;28;19928;-90
2022/11/17 03:55:42;;;;;;;;;;;6.70;99.90;;;;;;5057977;28;19936;-90
2022/11/17 03:58:12;;;;;;;;;;;6.70;99.90;;;;;;5059615;28;19941;-93
2022/11/17 04:00:40;;;;;;;;;;;6.80;99.90;;;;;;5058553;28;19920;-93
2022/11/17 04:03:07;;;;;;;;;;;6.70;99.90;;;;;;5058702;28;19981;-92
2022/11/17 04:05:34;;;;;;;;;;;6.70;99.90;;;;;;5060586;28;20001;-92
2022/11/17 04:08:01;;;;;;;;;;;6.70;99.90;;;;;;5059870;28;19913;-91
2022/11/17 04:10:29;;;;;;;;;;;6.70;99.90;;;;;;5059638;28;19948;-93
2022/11/17 04:15:58;;;;;;;;;;;6.70;99.90;;;;;;5058985;28;19956;-93
2022/11/17 04:18:25;;;;;;;;;;;6.80;99.90;;;;;;5058991;28;19929;-90
2022/11/17 04:20:53;;;;;;;;;;;6.90;99.90;;;;;;5059530;28;19916;-92
2022/11/17 04:23:20;;;;;;;;;;;6.60;99.90;;;;;;5059772;28;19965;-94
2022/11/17 04:28:37;;;;;;;;;;;6.60;99.90;;;;;;5059823;28;19932;-91
2022/11/17 04:31:04;;;;;;;;;;;6.60;99.90;;;;;;5059314;28;19955;-91
2022/11/17 04:33:31;;;;;;;;;;;6.50;99.90;;;;;;5058595;28;19947;-92
2022/11/17 04:35:58;;;;;;;;;;;6.50;99.90;;;;;;5059653;28;19928;-92
2022/11/17 04:38:25;;;;;;;;;;;6.50;99.90;;;;;;5059734;28;19915;-92
2022/11/17 04:43:40;;;;;;;;;;;6.50;99.90;;;;;;5034660;28;19929;-91
2022/11/17 04:46:07;;;;;;;;;;;6.50;99.90;;;;;;5059676;28;19909;-91
2022/11/17 04:48:33;;;;;;;;;;;6.60;99.90;;;;;;5059704;28;19921;-91
2022/11/17 04:51:00;;;;;;;;;;;6.50;99.90;;;;;;5069800;28;19920;-92
2022/11/17 04:53:27;;;;;;;;;;;6.50;99.90;;;;;;5079483;28;19920;-91
2022/11/17 04:55:59;;;;;;;;;;;6.50;99.90;;;;;;5078858;28;19913;-91
2022/11/17 04:58:25;;;;;;;;;;;6.60;99.90;;;;;;5078797;28;19917;-91
2022/11/17 05:00:52;;;;;;;;;;;6.50;99.90;;;;;;5078402;28;19913;-92
2022/11/17 05:03:19;;;;;;;;;;;6.50;99.90;;;;;;5078772;28;19929;-91
2022/11/17 05:05:46;;;;;;;;;;;6.60;99.90;;;;;;5078592;28;19959;-93
2022/11/17 05:08:13;;;;;;;;;;;6.50;99.90;;;;;;5078691;28;19921;-91
2022/11/17 05:13:25;;;;;;;;;;;6.50;99.90;;;;;;5059029;28;20127;-92
2022/11/17 05:18:36;;;;;;;;;;;6.50;99.90;;;;;;5059026;28;19948;-93
2022/11/17 05:21:04;;;;;;;;;;;6.60;99.90;;;;;;5057234;28;19928;-91
2022/11/17 05:26:15;;;;;;;;;;;6.60;99.90;;;;;;5057389;28;19955;-91
2022/11/17 05:28:43;;;;;;;;;;;6.60;99.90;;;;;;5058418;28;19916;-94
2022/11/17 05:31:10;;;;;;;;;;;6.60;99.90;;;;;;5051937;28;19921;-90
2022/11/17 05:33:37;;;;;;;;;;;6.60;99.90;;;;;;5046230;28;20135;-90
2022/11/17 05:36:04;;;;;;;;;;;6.70;99.90;;;;;;5046168;28;19921;-90
2022/11/17 05:38:31;;;;;;;;;;;6.70;99.90;;;;;;5049736;28;19948;-90
2022/11/17 05:40:57;;;;;;;;;;;6.70;99.90;;;;;;5058313;28;19941;-91
2022/11/17 05:43:24;;;;;;;;;;;6.70;99.90;;;;;;5054821;28;19984;-91
2022/11/17 05:45:52;;;;;;;;;;;6.70;99.90;;;;;;5049725;28;19932;-90
2022/11/17 05:48:19;;;;;;;;;;;6.70;99.90;;;;;;5050882;28;19933;-90
2022/11/17 05:50:46;;;;;;;;;;;6.70;99.90;;;;;;5052582;28;19925;-90
2022/11/17 05:53:13;;;;;;;;;;;6.80;99.90;;;;;;5053488;28;19921;-90
2022/11/17 05:55:39;;;;;;;;;;;6.80;99.90;;;;;;5053214;28;19921;-91
2022/11/17 05:58:09;;;;;;;;;;;6.80;99.90;;;;;;5064581;28;19960;-90
2022/11/17 06:00:38;;;;;;;;;;;6.80;99.90;;;;;;5076444;28;19932;-92
2022/11/17 06:03:08;;;;;;;;;;;6.80;99.90;;;;;;5076686;28;19920;-91
2022/11/17 06:05:35;;;;;;;;;;;6.80;99.90;;;;;;5077154;28;19921;-90
2022/11/17 06:08:01;;;;;;;;;;;6.80;99.90;;;;;;5078127;28;19981;-91
2022/11/17 06:10:28;;;;;;;;;;;6.90;99.90;;;;;;5078169;28;19933;-91
2022/11/17 06:12:55;;;;;;;;;;;6.90;99.90;;;;;;5078145;28;19916;-92
2022/11/17 06:15:22;;;;;;;;;;;6.70;99.90;;;;;;5078175;28;19919;-92
2022/11/17 06:17:51;;;;;;;;;;;6.80;99.90;;;;;;5077782;28;19952;-91
2022/11/17 06:20:22;;;;;;;;;;;6.90;99.90;;;;;;5074552;28;19940;-94
2022/11/17 06:22:49;;;;;;;;;;;6.80;99.90;;;;;;5050637;28;19921;-91
2022/11/17 06:25:16;;;;;;;;;;;6.80;99.90;;;;;;5053617;28;19928;-89
2022/11/17 06:27:43;;;;;;;;;;;6.80;99.90;;;;;;5053830;28;19936;-89
2022/11/17 06:30:10;;;;;;;;;;;6.80;99.90;;;;;;5057208;28;19944;-89
2022/11/17 06:32:42;;;;;;;;;;;6.80;99.90;;;;;;5057244;28;19924;-93
2022/11/17 06:35:10;;;;;;;;;;;6.80;99.90;;;;;;5074029;28;19913;-93
2022/11/17 06:37:38;;;;;;;;;;;6.80;99.90;;;;;;5065652;28;20041;-93
2022/11/17 06:40:05;;;;;;;;;;;6.80;99.90;;;;;;5075636;28;19930;-94
2022/11/17 06:45:16;;;;;;;;;;;6.80;99.90;;;;;;5077367;28;19940;-94
2022/11/17 06:47:43;;;;;;;;;;;6.80;99.90;;;;;;5077185;28;19935;-93
2022/11/17 06:50:10;;;;;;;;;;;6.80;99.90;;;;;;5075846;28;19929;-94
2022/11/17 06:52:38;;;;;;;;;;;6.80;99.90;;;;;;5057345;28;19928;-92
2022/11/17 06:55:05;;;;;;;;;;;7.10;99.90;;;;;;5057361;28;19913;-92
2022/11/17 06:57:32;;;;;;;;;;;6.80;99.90;;;;;;5061135;28;19933;-92
2022/11/17 06:59:59;;;;;;;;;;;6.80;99.90;;;;;;5061598;28;19933;-91
2022/11/17 07:02:26;;;;;;;;;;;6.80;99.90;;;;;;5061598;28;19929;-93
2022/11/17 07:04:53;;;;;;;;;;;6.90;99.90;;;;;;5061323;28;19909;-93
2022/11/17 07:07:20;;;;;;;;;;;6.90;99.90;;;;;;5061438;28;19939;-93
2022/11/17 07:09:48;;;;;;;;;;;7.00;99.90;;;;;;5061568;28;19923;-92
2022/11/17 07:12:15;;;;;;;;;;;6.90;99.90;;;;;;5061586;28;19909;-94
2022/11/17 07:14:42;;;;;;;;;;;6.90;99.90;;;;;;5061208;28;19940;-93
2022/11/17 07:17:10;;;;;;;;;;;7.20;99.90;;;;;;5061405;28;19909;-94
2022/11/17 07:19:40;;;;;;;;;;;6.90;99.90;;;;;;5061501;28;19909;-93
2022/11/17 07:22:08;;;;;;;;;;;7.00;99.90;;;;;;5077589;28;19980;-93
2022/11/17 07:24:52;;;;;;;;;;;7.00;99.90;;;;;;5081721;28;19915;-94
2022/11/17 07:27:20;;;;;;;;;;;7.10;99.90;;;;;;5100510;22;19920;-69
2022/11/17 07:29:47;;;;;;;;;;;7.00;99.90;;;;;;5086918;28;19963;-69
2022/11/17 07:32:15;;;;;;;;;;;7.00;99.90;;;;;;5086324;28;20155;-69
2022/11/17 07:34:42;;;;;;;;;;;7.10;99.90;;;;;;5086631;28;19920;-71
2022/11/17 07:37:08;;;;;;;;;;;7.10;99.90;;;;;;5086825;28;19979;-70
2022/11/17 07:39:35;;;;;;;;;;;7.10;99.90;;;;;;5086311;28;19971;-69
2022/11/17 07:42:02;;;;;;;;;;;7.10;99.90;;;;;;5086491;28;19920;-69
2022/11/17 07:44:30;;;;;;;;;;;7.10;99.90;;;;;;5086640;28;19984;-68
2022/11/17 07:46:57;;;;;;;;;;;7.10;99.90;;;;;;5086511;28;19987;-68
2022/11/17 07:49:24;;;;;;;;;;;7.10;99.90;;;;;;5086152;28;19992;-68
2022/11/17 07:51:50;;;;;;;;;;;7.10;99.90;;;;;;5086005;28;20062;-68
2022/11/17 07:54:17;;;;;;;;;;;7.10;99.90;;;;;;5086555;28;19984;-68
2022/11/17 07:56:44;;;;;;;;;;;7.20;99.90;;;;;;5086284;28;19956;-68
2022/11/17 07:59:10;;;;;;;;;;;7.20;99.90;;;;;;5086275;28;20007;-68
2022/11/17 08:01:38;;;;;;;;;;;7.20;99.90;;;;;;5086401;28;19920;-68
2022/11/17 08:04:05;;;;;;;;;;;7.20;99.90;;;;;;5086397;28;20149;-69
2022/11/17 08:06:31;;;;;;;;;;;7.30;99.90;;;;;;5085998;28;19988;-68
2022/11/17 08:08:58;;;;;;;;;;;7.30;99.90;;;;;;5085199;28;19980;-68
2022/11/17 08:11:25;;;;;;;;;;;7.30;99.90;;;;;;5085906;28;19966;-68
2022/11/17 08:13:51;;;;;;;;;;;7.30;99.90;;;;;;5085827;28;19951;-68
2022/11/17 08:16:18;;;;;;;;;;;7.40;99.90;;;;;;5085853;28;19983;-68
2022/11/17 08:18:46;;;;;;;;;;;7.40;99.90;;;;;;5085957;28;19956;-68
2022/11/17 08:21:13;;;;;;;;;;;7.50;99.90;;;;;;5085761;28;19984;-68
2022/11/17 08:23:40;;;;;;;;;;;7.50;99.90;;;;;;5085599;28;20271;-68
2022/11/17 08:26:08;;;;;;;;;;;7.50;99.90;;;;;;5085202;28;20496;-69
2022/11/17 08:28:34;;;;;;;;;;;7.60;99.90;;;;;;5085437;28;19963;-68
2022/11/17 08:31:01;;;;;;;;;;;7.60;99.90;;;;;;5085770;28;19920;-68
2022/11/17 08:33:28;;;;;;;;;;;7.70;99.90;;;;;;5085017;28;19956;-68
2022/11/17 08:35:58;;;;;;;;;;;7.70;99.90;;;;;;5085541;28;19963;-68
2022/11/17 08:38:27;;;;;;;;;;;7.70;99.90;;;;;;5085561;28;19958;-68
2022/11/17 08:40:54;;;;;;;;;;;7.80;99.90;;;;;;5085544;28;19943;-69
2022/11/17 08:43:21;;;;;;;;;;;7.80;99.90;;;;;;5085322;28;19988;-69
2022/11/17 08:45:47;;;;;;;;;;;7.90;99.90;;;;;;5085139;28;19991;-68
2022/11/17 08:48:14;;;;;;;;;;;7.90;99.90;;;;;;5085186;28;20120;-69
2022/11/17 08:50:41;;;;;;;;;;;7.90;99.90;;;;;;5085173;28;19987;-69
2022/11/17 08:53:12;;;;;;;;;;;7.90;99.90;;;;;;5085347;28;19979;-68
2022/11/17 08:55:39;;;;;;;;;;;8.00;99.90;;;;;;5085046;28;19983;-68
2022/11/17 08:58:05;;;;;;;;;;;8.00;99.90;;;;;;5085297;28;19987;-68
2022/11/17 09:00:32;;;;;;;;;;;8.00;99.90;;;;;;5085161;28;19991;-68
2022/11/17 09:02:59;;;;;;;;;;;8.00;99.90;;;;;;5085254;28;19983;-69
2022/11/17 09:05:27;;;;;;;;;;;8.00;99.90;;;;;;5084888;28;19960;-68
2022/11/17 09:07:53;;;;;;;;;;;8.10;99.90;;;;;;5084919;28;19927;-68
2022/11/17 09:10:21;;;;;;;;;;;8.10;99.90;;;;;;5084841;28;19979;-68
2022/11/17 09:12:48;;;;;;;;;;;8.10;99.90;;;;;;5084910;28;20164;-68
2022/11/17 09:15:15;;;;;;;;;;;8.10;99.90;;;;;;5084424;28;19960;-69
2022/11/17 09:17:46;;;;;;;;;;;8.10;99.90;;;;;;5084713;28;19934;-68
2022/11/17 09:20:13;;;;;;;;;;;8.10;99.90;;;;;;5084364;28;19967;-69
2022/11/17 09:22:39;;;;;;;;;;;8.10;99.90;;;;;;5084319;28;19984;-69
2022/11/17 09:25:06;;;;;;;;;;;8.20;99.90;;;;;;5084405;28;19983;-68
2022/11/17 09:27:34;;;;;;;;;;;8.20;99.90;;;;;;5084910;28;20154;-68
2022/11/17 09:30:01;;;;;;;;;;;8.20;99.90;;;;;;5084365;28;20092;-69
2022/11/17 09:32:27;;;;;;;;;;;8.20;99.90;;;;;;5084795;28;19956;-68
2022/11/17 09:34:54;;;;;;;;;;;8.30;99.90;;;;;;5083997;28;20279;-68
2022/11/17 09:37:21;;;;;;;;;;;8.30;99.90;;;;;;5084469;28;19983;-68
2022/11/17 09:39:48;;;;;;;;;;;8.30;99.90;;;;;;5084047;28;20185;-68
2022/11/17 09:42:15;;;;;;;;;;;8.40;99.90;;;;;;5084489;28;19992;-69
2022/11/17 09:44:45;;;;;;;;;;;8.40;99.90;;;;;;5084211;28;20167;-69
2022/11/17 09:47:16;;;;;;;;;;;8.50;99.90;;;;;;5084134;28;19959;-68
2022/11/17 09:49:48;;;;;;;;;;;8.40;99.90;;;;;;5084236;28;19987;-68
2022/11/17 09:52:17;;;;;;;;;;;8.50;99.90;;;;;;5083791;28;19952;-68
2022/11/17 09:54:47;;;;;;;;;;;8.50;99.90;;;;;;5084054;28;19927;-69
2022/11/17 09:57:20;;;;;;;;;;;8.60;99.90;;;;;;5083630;28;20288;-70
2022/11/17 09:59:52;;;;;;;;;;;8.60;99.90;;;;;;5083866;28;20271;-68
2022/11/17 10:02:19;;;;;;;;;;;8.60;99.90;;;;;;5084254;28;19943;-68
2022/11/17 10:04:46;;;;;;;;;;;8.60;99.90;;;;;;5083979;28;19995;-69
2022/11/17 10:07:13;;;;;;;;;;;8.60;99.90;;;;;;5084038;28;19920;-68
2022/11/17 10:09:42;;;;;;;;;;;8.70;99.90;;;;;;5084035;28;19948;-68
2022/11/17 10:12:14;;;;;;;;;;;8.70;99.90;;;;;;5084039;28;19991;-69
2022/11/17 10:14:41;;;;;;;;;;;8.70;99.90;;;;;;5083738;28;19987;-68
2022/11/17 10:17:11;;;;;;;;;;;8.80;99.90;;;;;;5083908;28;19992;-70
2022/11/17 10:19:38;;;;;;;;;;;8.80;99.90;;;;;;5083901;28;19920;-70
2022/11/17 10:22:14;;;;;;;;;;;8.80;99.90;;;;;;5083703;28;19942;-70
2022/11/17 10:24:42;;;;;;;;;;;8.70;99.90;;;;;;5083758;28;19987;-70
2022/11/17 10:27:18;;;;;;;;;;;8.80;99.90;;;;;;5083554;28;19955;-71
2022/11/17 10:29:55;;;;;;;;;;;8.80;99.90;;;;;;5083457;28;19959;-70
2022/11/17 10:32:23;;;;;;;;;;;8.80;99.90;;;;;;5083585;28;19963;-70
2022/11/17 10:34:50;;;;;;;;;;;8.80;99.90;;;;;;5083314;28;19947;-71
2022/11/17 10:37:28;;;;;;;;;;;8.80;99.90;;;;;;5083551;28;19921;-70
2022/11/17 10:40:13;;;;;;;;;;;8.70;99.90;;;;;;5083680;28;19963;-71
2022/11/17 10:42:42;;;;;;;;;;;8.60;99.90;;;;;;5083852;28;20107;-70
2022/11/17 10:45:13;;;;;;;;;;;8.60;99.90;;;;;;5083286;28;20224;-70
2022/11/17 10:47:41;;;;;;;;;;;8.60;99.90;;;;;;5084000;28;19920;-70
2022/11/17 10:50:17;;;;;;;;;;;8.70;99.90;;;;;;5083302;28;20223;-70
2022/11/17 10:52:44;;;;;;;;;;;8.80;99.90;;;;;;5083578;28;19952;-71
2022/11/17 10:55:17;;;;;;;;;;;8.90;99.90;;;;;;5083463;28;19992;-70
2022/11/17 10:57:45;;;;;;;;;;;8.90;99.90;;;;;;5083707;28;19966;-70
2022/11/17 11:00:22;;;;;;;;;;;8.90;99.90;;;;;;5083457;28;19995;-71
2022/11/17 11:03:02;;;;;;;;;;;9.00;99.90;;;;;;5083521;28;19955;-70
2022/11/17 11:05:28;;;;;;;;;;;9.00;99.90;;;;;;5083023;28;19958;-69
2022/11/17 11:08:08;;;;;;;;;;;9.00;99.90;;;;;;5083535;28;19927;-68
2022/11/17 11:10:35;;;;;;;;;;;9.10;99.90;;;;;;5083465;28;19987;-69
2022/11/17 11:13:06;;;;;;;;;;;9.10;99.90;;;;;;5083318;28;19928;-68
2022/11/17 11:15:34;;;;;;;;;;;9.20;99.90;;;;;;5083150;28;19987;-68
2022/11/17 11:18:05;;;;;;;;;;;9.20;99.90;;;;;;5083365;28;19951;-69
2022/11/17 11:20:39;;;;;;;;;;;9.30;99.90;;;;;;5083041;28;20415;-68
2022/11/17 11:23:08;;;;;;;;;;;9.30;99.90;;;;;;5083179;28;20194;-71
2022/11/17 11:25:37;;;;;;;;;;;9.40;99.90;;;;;;5082924;28;19954;-68
2022/11/17 11:28:10;;;;;;;;;;;9.40;99.90;;;;;;5083035;28;19987;-68
2022/11/17 11:30:41;;;;;;;;;;;9.50;99.90;;;;;;5083242;28;20003;-69
2022/11/17 11:33:20;;;;;;;;;;;9.60;99.90;;;;;;5082969;28;19951;-68
2022/11/17 11:35:54;;;;;;;;;;;9.80;99.90;;;;;;5088755;22;19920;-72
2022/11/17 11:38:28;;;;;;;;;;;10.10;99.90;;;;;;5062930;28;19985;-72
2022/11/17 11:41:01;;;;;;;;;;;10.40;99.90;;;;;;5062983;28;19991;-72
2022/11/17 11:43:32;;;;;;;;;;;10.60;99.90;;;;;;5066070;28;19988;-72
2022/11/17 11:46:02;;;;;;;;;;;10.90;99.90;;;;;;5066229;28;19963;-73
2022/11/17 11:48:32;;;;;;;;;;;11.20;99.90;;;;;;5065516;28;19953;-73
2022/11/17 11:50:59;;;;;;;;;;;11.30;99.90;;;;;;5066323;28;19920;-71
2022/11/17 11:53:29;;;;;;;;;;;11.40;99.90;;;;;;5066350;28;19963;-73
2022/11/17 11:56:01;;;;;;;;;;;11.60;99.90;;;;;;5065978;28;19928;-72
2022/11/17 11:58:28;;;;;;;;;;;11.60;99.90;;;;;;5066013;28;20230;-73
2022/11/17 12:00:57;;;;;;;;;;;11.70;99.90;;;;;;5065364;28;19991;-73
2022/11/17 12:03:25;;;;;;;;;;;11.60;99.90;;;;;;5066215;28;20076;-72
2022/11/17 12:06:38;;;;;;;;;;;11.50;99.90;;;;;;5065715;28;19977;-71
2022/11/17 12:08:55;;;;;;;;;;;11.40;99.90;;;;;;5065610;28;19921;-73
2022/11/17 12:14:06;;;;;;;;;;;11.60;99.90;;;;;;5065820;28;19970;-72
2022/11/17 12:16:34;;;;;;;;;;;11.50;99.90;;;;;;5065727;28;19963;-73
2022/11/17 12:19:01;;;;;;;;;;;11.30;99.90;;;;;;5065836;28;19984;-73
2022/11/17 12:21:29;;;;;;;;;;;11.30;99.90;;;;;;5065556;28;19995;-73
2022/11/17 12:24:14;;;;;;;;;;;11.20;99.90;;;;;;5065826;28;19983;-72
2022/11/17 12:26:40;;;;;;;;;;;11.20;99.90;;;;;;5065047;28;19983;-73
2022/11/17 12:29:24;;;;;;;;;;;11.00;99.90;;;;;;5065427;28;19988;-73
2022/11/17 12:31:51;;;;;;;;;;;11.00;99.90;;;;;;5065516;28;19963;-73
2022/11/17 12:34:23;;;;;;;;;;;10.90;99.90;;;;;;5065523;28;19959;-73
2022/11/17 12:37:08;;;;;;;;;;;10.90;99.90;;;;;;5065212;28;20283;-73
2022/11/17 12:39:55;;;;;;;;;;;10.90;99.90;;;;;;5065427;28;19993;-70
2022/11/17 12:42:21;;;;;;;;;;;10.90;99.90;;;;;;5065631;28;20164;-72
2022/11/17 12:44:49;;;;;;;;;;;10.80;99.90;;;;;;5064784;28;19929;-72
2022/11/17 12:47:17;;;;;;;;;;;10.80;99.90;;;;;;5065349;28;20154;-72
2022/11/17 12:49:51;;;;;;;;;;;10.90;99.90;;;;;;5064539;28;20174;-72
2022/11/17 12:52:21;;;;;;;;;;;10.90;99.90;;;;;;5064920;28;19983;-72
2022/11/17 12:54:53;;;;;;;;;;;11.00;99.90;;;;;;5063762;28;19960;-71
2022/11/17 12:57:24;;;;;;;;;;;11.00;99.90;;;;;;5064806;28;20271;-72
2022/11/17 13:00:06;;;;;;;;;;;11.10;99.90;;;;;;5064840;28;19997;-71
2022/11/17 13:02:39;;;;;;;;;;;11.10;99.90;;;;;;5063219;28;19921;-72
2022/11/17 13:05:08;;;;;;;;;;;11.20;99.90;;;;;;5064772;28;19984;-72
2022/11/17 13:07:35;;;;;;;;;;;11.20;99.90;;;;;;5064798;28;19963;-72
2022/11/17 13:10:01;;;;;;;;;;;11.40;99.90;;;;;;5064806;28;19960;-71
2022/11/17 13:12:31;;;;;;;;;;;11.70;99.90;;;;;;5064838;28;19920;-71
2022/11/17 13:14:58;;;;;;;;;;;12.00;99.90;;;;;;5064535;28;19920;-70
2022/11/17 13:17:27;;;;;;;;;;;12.40;99.90;;;;;;5064871;28;19987;-72
2022/11/17 13:20:01;;;;;;;;;;;12.60;99.90;;;;;;5064562;28;20132;-71
2022/11/17 13:22:27;;;;;;;;;;;12.80;99.90;;;;;;5064452;28;19987;-71
2022/11/17 13:24:56;;;;;;;;;;;12.90;99.90;;;;;;5064357;28;19956;-71
2022/11/17 13:27:24;;;;;;;;;;;12.90;99.90;;;;;;5064593;28;19925;-71
2022/11/17 13:29:52;;;;;;;;;;;12.80;99.90;;;;;;5064523;28;19920;-73
2022/11/17 13:32:20;;;;;;;;;;;12.70;99.90;;;;;;5064504;28;19963;-72
2022/11/17 13:34:48;;;;;;;;;;;12.70;99.90;;;;;;5063731;28;20200;-71
2022/11/17 13:37:16;;;;;;;;;;;12.80;99.90;;;;;;5064082;28;19985;-71
2022/11/17 13:39:53;;;;;;;;;;;12.80;99.90;;;;;;5064307;28;19983;-71
2022/11/17 13:42:19;;;;;;;;;;;12.70;99.90;;;;;;5064276;28;20181;-72
2022/11/17 13:44:46;;;;;;;;;;;12.60;99.90;;;;;;5063823;28;19927;-70
2022/11/17 13:47:21;;;;;;;;;;;12.60;99.90;;;;;;5064003;28;19928;-71
2022/11/17 13:49:49;;;;;;;;;;;12.60;99.90;;;;;;5063595;28;19963;-74
2022/11/17 13:52:27;;;;;;;;;;;12.50;99.90;;;;;;5064011;28;19988;-71
2022/11/17 13:54:54;;;;;;;;;;;12.40;99.90;;;;;;5063424;28;20385;-74
2022/11/17 13:57:24;;;;;;;;;;;12.30;99.90;;;;;;5064113;28;20148;-70
2022/11/17 13:59:51;;;;;;;;;;;12.20;99.90;;;;;;5064212;28;20000;-71
2022/11/17 14:02:24;;;;;;;;;;;12.20;99.90;;;;;;5063455;28;20001;-71
2022/11/17 14:05:21;;;;;;;;;;;12.10;99.90;;;;;;5063623;28;19929;-71
2022/11/17 14:07:48;;;;;;;;;;;12.00;99.90;;;;;;5022251;28;19985;-73
2022/11/17 14:10:26;;;;;;;;;;;12.00;99.90;;;;;;5054224;28;19921;-71
2022/11/17 14:12:54;;;;;;;;;;;12.00;99.90;;;;;;5063497;28;20120;-74
2022/11/17 14:15:22;;;;;;;;;;;11.90;99.90;;;;;;5063467;28;19988;-71
2022/11/17 14:17:51;;;;;;;;;;;11.90;99.90;;;;;;5063796;28;19920;-71
2022/11/17 14:20:19;;;;;;;;;;;11.90;99.90;;;;;;5063340;28;20271;-71
2022/11/17 14:22:58;;;;;;;;;;;11.90;99.90;;;;;;5063535;28;20097;-69
2022/11/17 14:25:25;;;;;;;;;;;11.90;99.90;;;;;;5063093;28;19948;-71
2022/11/17 14:27:52;;;;;;;;;;;11.80;99.90;;;;;;5063487;28;20282;-70
2022/11/17 14:30:18;;;;;;;;;;;11.80;99.90;;;;;;5063237;28;19984;-71
2022/11/17 14:32:45;;;;;;;;;;;11.80;99.90;;;;;;5063712;28;19956;-71
2022/11/17 14:35:14;;;;;;;;;;;11.70;99.90;;;;;;5063084;28;19921;-72
2022/11/17 14:37:40;;;;;;;;;;;11.70;99.90;;;;;;5063454;28;19924;-71
2022/11/17 14:40:12;;;;;;;;;;;11.70;99.90;;;;;;5063441;28;19952;-71
2022/11/17 14:42:40;;;;;;;;;;;11.70;99.90;;;;;;5063500;28;19952;-71
2022/11/17 14:45:07;;;;;;;;;;;11.70;99.90;;;;;;5063089;28;19928;-71
2022/11/17 14:47:34;;;;;;;;;;;11.70;99.90;;;;;;5063435;28;19920;-70
2022/11/17 14:50:01;;;;;;;;;;;11.70;99.90;;;;;;5063516;28;19921;-71
2022/11/17 14:52:29;;;;;;;;;;;11.60;99.90;;;;;;5063169;28;19983;-70
2022/11/17 14:54:57;;;;;;;;;;;11.70;99.90;;;;;;5062854;28;19963;-71
2022/11/17 14:57:24;;;;;;;;;;;11.70;99.90;;;;;;5063466;28;19986;-71
2022/11/17 14:59:51;;;;;;;;;;;11.60;99.90;;;;;;5063209;28;19943;-71
2022/11/17 15:02:17;;;;;;;;;;;11.60;99.90;;;;;;5062994;28;19984;-72
2022/11/17 15:04:44;;;;;;;;;;;11.50;99.90;;;;;;5063467;28;19963;-72
2022/11/17 15:07:10;;;;;;;;;;;11.50;99.90;;;;;;5062885;28;19999;-72
2022/11/17 15:09:39;;;;;;;;;;;11.50;99.90;;;;;;5062850;28;19984;-72
2022/11/17 15:12:05;;;;;;;;;;;11.40;99.90;;;;;;5063140;28;19963;-71